sensor_id;sensor_type;location;lat;lon;timestamp;pressure;altitude;pressure_sealevel;temperature;humidity
59757;BME280;45631;51.962;5.974;2022-08-24T00:01:53;101574.56;;;21.00;100.00
59757;BME280;45631;51.962;5.974;2022-08-24T00:04:23;101575.78;;;20.88;100.00
59757;BME280;45631;51.962;5.974;2022-08-24T00:06:53;101571.00;;;20.82;100.00
59757;BME280;45631;51.962;5.974;2022-08-24T00:09:22;101569.44;;;20.89;100.00
59757;BME280;45631;51.962;5.974;2022-08-24T00:11:50;101571.31;;;20.79;100.00
59757;BME280;45631;51.962;5.974;2022-08-24T00:14:18;101574.47;;;20.74;100.00
59757;BME280;45631;51.962;5.974;2022-08-24T00:16:46;101573.53;;;20.83;100.00
59757;BME280;45631;51.962;5.974;2022-08-24T00:19:16;101564.75;;;20.73;100.00
59757;BME280;45631;51.962;5.974;2022-08-24T00:21:46;101583.91;;;20.68;100.00
59757;BME280;45631;51.962;5.974;2022-08-24T00:24:14;101582.91;;;20.69;100.00
59757;BME280;45631;51.962;5.974;2022-08-24T00:26:42;101572.50;;;20.66;100.00
59757;BME280;45631;51.962;5.974;2022-08-24T00:29:11;101585.91;;;20.56;100.00
59757;BME280;45631;51.962;5.974;2022-08-24T00:31:40;101587.13;;;20.62;100.00
59757;BME280;45631;51.962;5.974;2022-08-24T00:34:08;101585.34;;;20.53;100.00
59757;BME280;45631;51.962;5.974;2022-08-24T00:36:39;101586.47;;;20.50;100.00
59757;BME280;45631;51.962;5.974;2022-08-24T00:39:09;101589.59;;;20.46;100.00
59757;BME280;45631;51.962;5.974;2022-08-24T00:41:39;101593.50;;;20.51;100.00
59757;BME280;45631;51.962;5.974;2022-08-24T00:44:08;101591.56;;;20.53;100.00
59757;BME280;45631;51.962;5.974;2022-08-24T00:46:45;101582.00;;;20.41;100.00
59757;BME280;45631;51.962;5.974;2022-08-24T00:49:21;101596.06;;;20.43;100.00
59757;BME280;45631;51.962;5.974;2022-08-24T00:51:55;101590.47;;;20.36;100.00
59757;BME280;45631;51.962;5.974;2022-08-24T00:54:27;101594.44;;;20.32;100.00
59757;BME280;45631;51.962;5.974;2022-08-24T00:56:59;101592.06;;;20.29;100.00
59757;BME280;45631;51.962;5.974;2022-08-24T00:59:31;101594.16;;;20.25;100.00
59757;BME280;45631;51.962;5.974;2022-08-24T01:02:02;101604.00;;;20.25;100.00
59757;BME280;45631;51.962;5.974;2022-08-24T01:04:45;101597.28;;;20.21;100.00
59757;BME280;45631;51.962;5.974;2022-08-24T01:07:15;101594.88;;;20.18;100.00
59757;BME280;45631;51.962;5.974;2022-08-24T01:09:45;101600.78;;;20.21;100.00
59757;BME280;45631;51.962;5.974;2022-08-24T01:12:13;101594.66;;;20.11;100.00
59757;BME280;45631;51.962;5.974;2022-08-24T01:14:43;101599.69;;;20.14;100.00
59757;BME280;45631;51.962;5.974;2022-08-24T01:17:12;101593.63;;;20.12;100.00
59757;BME280;45631;51.962;5.974;2022-08-24T01:20:07;101595.06;;;20.06;100.00
59757;BME280;45631;51.962;5.974;2022-08-24T01:22:45;101591.41;;;20.07;100.00
59757;BME280;45631;51.962;5.974;2022-08-24T01:25:18;101595.06;;;20.06;100.00
59757;BME280;45631;51.962;5.974;2022-08-24T01:27:49;101591.16;;;20.01;100.00
59757;BME280;45631;51.962;5.974;2022-08-24T01:30:18;101585.81;;;19.91;100.00
59757;BME280;45631;51.962;5.974;2022-08-24T01:32:59;101594.25;;;19.96;100.00
59757;BME280;45631;51.962;5.974;2022-08-24T01:35:28;101588.63;;;19.99;100.00
59757;BME280;45631;51.962;5.974;2022-08-24T01:38:04;101594.53;;;19.93;100.00
59757;BME280;45631;51.962;5.974;2022-08-24T01:40:36;101593.41;;;19.86;100.00
59757;BME280;45631;51.962;5.974;2022-08-24T01:43:06;101600.16;;;19.90;100.00
59757;BME280;45631;51.962;5.974;2022-08-24T01:45:34;101593.84;;;19.91;100.00
59757;BME280;45631;51.962;5.974;2022-08-24T01:48:03;101590.59;;;19.77;100.00
59757;BME280;45631;51.962;5.974;2022-08-24T01:50:31;101588.63;;;19.80;100.00
59757;BME280;45631;51.962;5.974;2022-08-24T01:53:03;101595.66;;;19.81;100.00
59757;BME280;45631;51.962;5.974;2022-08-24T01:55:32;101589.75;;;19.77;100.00
59757;BME280;45631;51.962;5.974;2022-08-24T01:58:03;101592.53;;;19.75;100.00
59757;BME280;45631;51.962;5.974;2022-08-24T02:00:34;101592.69;;;19.74;100.00
59757;BME280;45631;51.962;5.974;2022-08-24T02:03:02;101591.13;;;19.71;100.00
59757;BME280;45631;51.962;5.974;2022-08-24T02:05:31;101591.13;;;19.71;100.00
59757;BME280;45631;51.962;5.974;2022-08-24T02:08:00;101592.16;;;19.70;100.00
59757;BME280;45631;51.962;5.974;2022-08-24T02:10:28;101593.28;;;19.58;100.00
59757;BME280;45631;51.962;5.974;2022-08-24T02:12:57;101595.94;;;19.58;100.00
59757;BME280;45631;51.962;5.974;2022-08-24T02:15:29;101592.00;;;19.62;100.00
59757;BME280;45631;51.962;5.974;2022-08-24T02:17:58;101595.81;;;19.59;100.00
59757;BME280;45631;51.962;5.974;2022-08-24T02:20:27;101590.63;;;19.58;100.00
59757;BME280;45631;51.962;5.974;2022-08-24T02:22:56;101580.19;;;19.55;100.00
59757;BME280;45631;51.962;5.974;2022-08-24T02:25:24;101593.97;;;19.50;100.00
59757;BME280;45631;51.962;5.974;2022-08-24T02:27:56;101593.81;;;19.52;100.00
59757;BME280;45631;51.962;5.974;2022-08-24T02:30:27;101597.75;;;19.48;100.00
59757;BME280;45631;51.962;5.974;2022-08-24T02:32:56;101608.84;;;19.43;100.00
59757;BME280;45631;51.962;5.974;2022-08-24T02:35:27;101607.75;;;19.46;100.00
59757;BME280;45631;51.962;5.974;2022-08-24T02:37:56;101611.66;;;19.41;100.00
59757;BME280;45631;51.962;5.974;2022-08-24T02:40:25;101611.66;;;19.41;100.00
59757;BME280;45631;51.962;5.974;2022-08-24T02:42:53;101618.97;;;19.39;100.00
59757;BME280;45631;51.962;5.974;2022-08-24T02:45:22;101619.38;;;19.35;100.00
59757;BME280;45631;51.962;5.974;2022-08-24T02:47:51;101620.06;;;19.27;100.00
59757;BME280;45631;51.962;5.974;2022-08-24T02:50:20;101620.66;;;19.31;100.00
59757;BME280;45631;51.962;5.974;2022-08-24T02:52:48;101623.03;;;19.34;100.00
59757;BME280;45631;51.962;5.974;2022-08-24T02:55:17;101620.34;;;19.34;100.00
59757;BME280;45631;51.962;5.974;2022-08-24T02:57:46;101619.25;;;19.36;100.00
59757;BME280;45631;51.962;5.974;2022-08-24T03:00:18;101621.75;;;19.28;100.00
59757;BME280;45631;51.962;5.974;2022-08-24T03:02:47;101617.53;;;19.25;100.00
59757;BME280;45631;51.962;5.974;2022-08-24T03:05:17;101614.28;;;19.22;100.00
59757;BME280;45631;51.962;5.974;2022-08-24T03:07:45;101607.69;;;19.16;100.00
59757;BME280;45631;51.962;5.974;2022-08-24T03:10:14;101610.22;;;19.18;100.00
59757;BME280;45631;51.962;5.974;2022-08-24T03:12:42;101605.56;;;19.10;100.00
59757;BME280;45631;51.962;5.974;2022-08-24T03:15:11;101610.50;;;19.15;100.00
59757;BME280;45631;51.962;5.974;2022-08-24T03:17:40;101602.06;;;19.09;100.00
59757;BME280;45631;51.962;5.974;2022-08-24T03:20:13;101606.00;;;19.05;100.00
59757;BME280;45631;51.962;5.974;2022-08-24T03:22:42;101597.84;;;19.07;100.00
59757;BME280;45631;51.962;5.974;2022-08-24T03:25:13;101601.38;;;19.07;100.00
59757;BME280;45631;51.962;5.974;2022-08-24T03:27:41;101602.63;;;19.03;100.00
59757;BME280;45631;51.962;5.974;2022-08-24T03:30:12;101606.56;;;18.99;100.00
59757;BME280;45631;51.962;5.974;2022-08-24T03:32:42;101599.09;;;18.93;100.00
59757;BME280;45631;51.962;5.974;2022-08-24T03:35:11;101599.97;;;19.03;100.00
59757;BME280;45631;51.962;5.974;2022-08-24T03:37:40;101595.47;;;19.04;100.00
59757;BME280;45631;51.962;5.974;2022-08-24T03:40:11;101598.50;;;18.89;100.00
59757;BME280;45631;51.962;5.974;2022-08-24T03:42:48;101601.91;;;18.91;100.00
59757;BME280;45631;51.962;5.974;2022-08-24T03:45:17;101601.75;;;18.93;100.00
59757;BME280;45631;51.962;5.974;2022-08-24T03:47:46;101598.41;;;18.91;100.00
59757;BME280;45631;51.962;5.974;2022-08-24T03:50:14;101598.91;;;18.85;100.00
59757;BME280;45631;51.962;5.974;2022-08-24T03:52:42;101606.16;;;18.83;100.00
59757;BME280;45631;51.962;5.974;2022-08-24T03:55:12;101603.09;;;18.78;100.00
59757;BME280;45631;51.962;5.974;2022-08-24T03:57:40;101601.84;;;18.82;100.00
59757;BME280;45631;51.962;5.974;2022-08-24T04:00:11;101606.59;;;18.78;100.00
59757;BME280;45631;51.962;5.974;2022-08-24T04:02:40;101605.63;;;18.79;100.00
59757;BME280;45631;51.962;5.974;2022-08-24T04:05:10;101615.31;;;18.80;100.00
59757;BME280;45631;51.962;5.974;2022-08-24T04:07:38;101608.66;;;18.74;100.00
59757;BME280;45631;51.962;5.974;2022-08-24T04:10:07;101616.50;;;18.66;100.00
59757;BME280;45631;51.962;5.974;2022-08-24T04:12:38;101618.19;;;18.67;100.00
59757;BME280;45631;51.962;5.974;2022-08-24T04:15:07;101616.31;;;18.58;100.00
59757;BME280;45631;51.962;5.974;2022-08-24T04:17:35;101618.31;;;18.66;100.00
59757;BME280;45631;51.962;5.974;2022-08-24T04:20:04;101614.56;;;18.68;100.00
59757;BME280;45631;51.962;5.974;2022-08-24T04:22:33;101609.50;;;18.65;100.00
59757;BME280;45631;51.962;5.974;2022-08-24T04:25:03;101610.34;;;18.66;100.00
59757;BME280;45631;51.962;5.974;2022-08-24T04:27:35;101606.13;;;18.63;100.00
59757;BME280;45631;51.962;5.974;2022-08-24T04:30:06;101614.22;;;18.52;100.00
59757;BME280;45631;51.962;5.974;2022-08-24T04:32:35;101618.63;;;18.41;100.00
59757;BME280;45631;51.962;5.974;2022-08-24T04:35:05;101615.00;;;18.42;100.00
59757;BME280;45631;51.962;5.974;2022-08-24T04:37:33;101612.94;;;18.46;100.00
59757;BME280;45631;51.962;5.974;2022-08-24T04:40:02;101611.59;;;18.40;100.00
59757;BME280;45631;51.962;5.974;2022-08-24T04:42:30;101618.78;;;18.40;100.00
59757;BME280;45631;51.962;5.974;2022-08-24T04:44:59;101614.41;;;18.39;100.00
59757;BME280;45631;51.962;5.974;2022-08-24T04:47:29;101621.75;;;18.47;100.00
59757;BME280;45631;51.962;5.974;2022-08-24T04:49:57;101631.16;;;18.51;100.00
59757;BME280;45631;51.962;5.974;2022-08-24T04:52:27;101630.97;;;18.42;100.00
59757;BME280;45631;51.962;5.974;2022-08-24T04:54:55;101627.06;;;18.47;100.00
59757;BME280;45631;51.962;5.974;2022-08-24T04:57:23;101638.72;;;18.55;100.00
59757;BME280;45631;51.962;5.974;2022-08-24T04:59:54;101636.16;;;18.44;100.00
59757;BME280;45631;51.962;5.974;2022-08-24T05:02:23;101636.56;;;18.39;100.00
59757;BME280;45631;51.962;5.974;2022-08-24T05:04:55;101640.38;;;18.47;100.00
59757;BME280;45631;51.962;5.974;2022-08-24T05:07:23;101641.13;;;18.49;100.00
59757;BME280;45631;51.962;5.974;2022-08-24T05:09:51;101649.22;;;18.47;100.00
59757;BME280;45631;51.962;5.974;2022-08-24T05:12:19;101641.53;;;18.54;100.00
59757;BME280;45631;51.962;5.974;2022-08-24T05:14:47;101643.81;;;18.58;100.00
59757;BME280;45631;51.962;5.974;2022-08-24T05:17:15;101639.59;;;18.56;100.00
59757;BME280;45631;51.962;5.974;2022-08-24T05:19:43;101643.41;;;18.63;100.00
59757;BME280;45631;51.962;5.974;2022-08-24T05:22:13;101647.03;;;18.62;100.00
59757;BME280;45631;51.962;5.974;2022-08-24T05:24:41;101654.34;;;18.60;100.00
59757;BME280;45631;51.962;5.974;2022-08-24T05:27:09;101654.47;;;18.58;100.00
59757;BME280;45631;51.962;5.974;2022-08-24T05:29:40;101664.53;;;18.55;100.00
59757;BME280;45631;51.962;5.974;2022-08-24T05:32:08;101662.34;;;18.60;100.00
59757;BME280;45631;51.962;5.974;2022-08-24T05:34:36;101664.53;;;18.55;100.00
59757;BME280;45631;51.962;5.974;2022-08-24T05:37:04;101663.34;;;18.69;100.00
59757;BME280;45631;51.962;5.974;2022-08-24T05:39:34;101666.97;;;18.68;100.00
59757;BME280;45631;51.962;5.974;2022-08-24T05:42:02;101670.22;;;18.71;100.00
59757;BME280;45631;51.962;5.974;2022-08-24T05:44:30;101672.59;;;18.74;100.00
59757;BME280;45631;51.962;5.974;2022-08-24T05:46:59;101673.06;;;18.80;100.00
59757;BME280;45631;51.962;5.974;2022-08-24T05:49:28;101663.00;;;18.83;100.00
59757;BME280;45631;51.962;5.974;2022-08-24T05:51:58;101658.13;;;18.88;100.00
59757;BME280;45631;51.962;5.974;2022-08-24T05:54:27;101658.44;;;18.95;100.00
59757;BME280;45631;51.962;5.974;2022-08-24T05:56:57;101666.47;;;19.05;100.00
59757;BME280;45631;51.962;5.974;2022-08-24T05:59:30;101661.81;;;19.07;100.00
59757;BME280;45631;51.962;5.974;2022-08-24T06:01:58;101663.53;;;19.18;100.00
59757;BME280;45631;51.962;5.974;2022-08-24T06:04:26;101660.50;;;19.32;100.00
59757;BME280;45631;51.962;5.974;2022-08-24T06:06:57;101662.44;;;19.30;100.00
59757;BME280;45631;51.962;5.974;2022-08-24T06:09:25;101667.94;;;19.38;100.00
59757;BME280;45631;51.962;5.974;2022-08-24T06:11:53;101673.56;;;19.45;100.00
59757;BME280;45631;51.962;5.974;2022-08-24T06:14:23;101676.53;;;19.52;100.00
59757;BME280;45631;51.962;5.974;2022-08-24T06:16:53;101677.53;;;19.61;100.00
59757;BME280;45631;51.962;5.974;2022-08-24T06:19:21;101681.47;;;19.66;100.00
59757;BME280;45631;51.962;5.974;2022-08-24T06:21:51;101677.38;;;19.72;100.00
59757;BME280;45631;51.962;5.974;2022-08-24T06:24:21;101687.38;;;19.80;100.00
59757;BME280;45631;51.962;5.974;2022-08-24T06:27:10;101685.56;;;19.90;100.00
59757;BME280;45631;51.962;5.974;2022-08-24T06:29:52;101680.22;;;20.00;100.00
59757;BME280;45631;51.962;5.974;2022-08-24T06:32:21;101689.06;;;20.10;100.00
59757;BME280;45631;51.962;5.974;2022-08-24T06:34:49;101686.53;;;20.18;100.00
59757;BME280;45631;51.962;5.974;2022-08-24T06:37:17;101693.69;;;20.27;100.00
59757;BME280;45631;51.962;5.974;2022-08-24T06:39:45;101689.16;;;20.38;100.00
59757;BME280;45631;51.962;5.974;2022-08-24T06:42:20;101690.53;;;20.52;100.00
59757;BME280;45631;51.962;5.974;2022-08-24T06:44:51;101693.72;;;20.65;100.00
59757;BME280;45631;51.962;5.974;2022-08-24T06:47:22;101698.94;;;20.76;100.00
59757;BME280;45631;51.962;5.974;2022-08-24T06:49:50;101694.06;;;20.90;100.00
59757;BME280;45631;51.962;5.974;2022-08-24T06:52:18;101688.41;;;21.03;100.00
59757;BME280;45631;51.962;5.974;2022-08-24T06:54:46;101700.44;;;21.17;100.00
59757;BME280;45631;51.962;5.974;2022-08-24T06:57:14;101702.06;;;21.27;100.00
59757;BME280;45631;51.962;5.974;2022-08-24T06:59:42;101700.88;;;21.40;100.00
59757;BME280;45631;51.962;5.974;2022-08-24T07:02:12;101688.38;;;21.58;100.00
59757;BME280;45631;51.962;5.974;2022-08-24T07:04:41;101694.19;;;21.72;100.00
59757;BME280;45631;51.962;5.974;2022-08-24T07:07:10;101691.81;;;21.87;100.00
59757;BME280;45631;51.962;5.974;2022-08-24T07:09:38;101697.47;;;22.02;100.00
59757;BME280;45631;51.962;5.974;2022-08-24T07:12:07;101696.59;;;22.19;100.00
59757;BME280;45631;51.962;5.974;2022-08-24T07:14:35;101699.25;;;22.37;100.00
59757;BME280;45631;51.962;5.974;2022-08-24T07:17:03;101693.88;;;22.55;100.00
59757;BME280;45631;51.962;5.974;2022-08-24T07:19:33;101702.69;;;22.82;100.00
59757;BME280;45631;51.962;5.974;2022-08-24T07:22:01;101704.25;;;22.93;100.00
59757;BME280;45631;51.962;5.974;2022-08-24T07:24:29;101700.50;;;23.12;100.00
59757;BME280;45631;51.962;5.974;2022-08-24T07:26:58;101701.59;;;23.27;100.00
59757;BME280;45631;51.962;5.974;2022-08-24T07:29:26;101703.00;;;23.48;100.00
59757;BME280;45631;51.962;5.974;2022-08-24T07:32:14;101701.84;;;23.75;97.56
59757;BME280;45631;51.962;5.974;2022-08-24T07:34:43;101701.06;;;24.00;95.54
59757;BME280;45631;51.962;5.974;2022-08-24T07:37:11;101697.34;;;24.17;92.94
59757;BME280;45631;51.962;5.974;2022-08-24T07:39:40;101696.47;;;24.33;91.04
59757;BME280;45631;51.962;5.974;2022-08-24T07:42:08;101705.84;;;24.54;89.16
59757;BME280;45631;51.962;5.974;2022-08-24T07:44:42;101699.78;;;24.76;88.79
59757;BME280;45631;51.962;5.974;2022-08-24T07:47:10;101699.69;;;25.01;90.80
59757;BME280;45631;51.962;5.974;2022-08-24T07:49:59;101692.63;;;25.31;89.14
59757;BME280;45631;51.962;5.974;2022-08-24T07:52:27;101703.13;;;25.58;86.90
59757;BME280;45631;51.962;5.974;2022-08-24T07:54:59;101693.72;;;25.77;83.70
59757;BME280;45631;51.962;5.974;2022-08-24T07:57:27;101703.28;;;26.03;85.62
59757;BME280;45631;51.962;5.974;2022-08-24T08:00:00;101692.56;;;26.32;82.09
59757;BME280;45631;51.962;5.974;2022-08-24T08:02:30;101701.34;;;26.49;81.63
59757;BME280;45631;51.962;5.974;2022-08-24T08:05:04;101693.69;;;26.68;79.29
59757;BME280;45631;51.962;5.974;2022-08-24T08:07:32;101705.72;;;26.80;77.25
59757;BME280;45631;51.962;5.974;2022-08-24T08:10:01;101704.69;;;26.96;79.11
59757;BME280;45631;51.962;5.974;2022-08-24T08:12:29;101711.84;;;27.04;73.48
59757;BME280;45631;51.962;5.974;2022-08-24T08:14:57;101716.00;;;27.22;70.44
59757;BME280;45631;51.962;5.974;2022-08-24T08:17:25;101718.88;;;27.35;73.08
59757;BME280;45631;51.962;5.974;2022-08-24T08:19:53;101719.41;;;27.45;72.46
59757;BME280;45631;51.962;5.974;2022-08-24T08:22:23;101716.59;;;27.54;70.36
59757;BME280;45631;51.962;5.974;2022-08-24T08:25:09;101719.03;;;27.70;68.77
59757;BME280;45631;51.962;5.974;2022-08-24T08:27:37;101720.72;;;27.93;68.50
59757;BME280;45631;51.962;5.974;2022-08-24T08:30:06;101716.59;;;28.19;66.60
59757;BME280;45631;51.962;5.974;2022-08-24T08:32:34;101728.53;;;28.31;66.45
59757;BME280;45631;51.962;5.974;2022-08-24T08:35:03;101722.38;;;28.44;64.23
59757;BME280;45631;51.962;5.974;2022-08-24T08:37:33;101723.38;;;28.64;64.17
59757;BME280;45631;51.962;5.974;2022-08-24T08:40:09;101730.53;;;28.79;62.32
59757;BME280;45631;51.962;5.974;2022-08-24T08:42:53;101719.81;;;28.99;62.63
59757;BME280;45631;51.962;5.974;2022-08-24T08:45:32;101724.88;;;29.15;62.33
59757;BME280;45631;51.962;5.974;2022-08-24T08:51:32;101715.19;;;29.34;58.58
59757;BME280;45631;51.962;5.974;2022-08-24T08:57:13;101718.44;;;29.92;56.50
59757;BME280;45631;51.962;5.974;2022-08-24T09:00:06;101712.56;;;30.22;56.67
59757;BME280;45631;51.962;5.974;2022-08-24T09:06:11;101715.22;;;30.62;54.72
59757;BME280;45631;51.962;5.974;2022-08-24T09:09:03;101713.25;;;30.89;52.99
59757;BME280;45631;51.962;5.974;2022-08-24T09:11:45;101719.50;;;31.03;50.15
59757;BME280;45631;51.962;5.974;2022-08-24T09:17:27;101714.09;;;31.42;50.19
59757;BME280;45631;51.962;5.974;2022-08-24T09:20:15;101715.09;;;31.47;49.97
59757;BME280;45631;51.962;5.974;2022-08-24T09:22:46;101709.16;;;31.57;48.64
59757;BME280;45631;51.962;5.974;2022-08-24T09:25:21;101711.28;;;31.87;49.20
59757;BME280;45631;51.962;5.974;2022-08-24T09:28:09;101712.97;;;32.07;48.85
59757;BME280;45631;51.962;5.974;2022-08-24T09:30:59;101713.22;;;32.05;47.17
59757;BME280;45631;51.962;5.974;2022-08-24T09:33:36;101711.22;;;32.19;46.81
59757;BME280;45631;51.962;5.974;2022-08-24T09:36:12;101709.53;;;32.43;46.99
59757;BME280;45631;51.962;5.974;2022-08-24T09:39:04;101709.28;;;32.70;44.86
59757;BME280;45631;51.962;5.974;2022-08-24T09:42:09;101703.34;;;32.92;45.97
59757;BME280;45631;51.962;5.974;2022-08-24T09:45:09;101711.22;;;33.00;44.06
59757;BME280;45631;51.962;5.974;2022-08-24T09:51:22;101712.34;;;33.23;44.57
59757;BME280;45631;51.962;5.974;2022-08-24T09:57:06;101712.91;;;33.31;42.40
59757;BME280;45631;51.962;5.974;2022-08-24T09:59:54;101711.78;;;33.51;42.41
59757;BME280;45631;51.962;5.974;2022-08-24T10:02:38;101711.97;;;33.38;41.25
59757;BME280;45631;51.962;5.974;2022-08-24T10:05:22;101707.16;;;33.51;40.42
59757;BME280;45631;51.962;5.974;2022-08-24T10:08:00;101705.03;;;33.53;42.66
59757;BME280;45631;51.962;5.974;2022-08-24T10:10:43;101702.56;;;33.76;41.54
59757;BME280;45631;51.962;5.974;2022-08-24T10:13:22;101705.72;;;34.03;41.06
59757;BME280;45631;51.962;5.974;2022-08-24T10:16:03;101696.59;;;34.21;39.39
59757;BME280;45631;51.962;5.974;2022-08-24T10:18:44;101700.16;;;33.98;38.84
59757;BME280;45631;51.962;5.974;2022-08-24T10:21:29;101690.41;;;34.26;39.36
59757;BME280;45631;51.962;5.974;2022-08-24T10:24:11;101691.56;;;34.53;38.23
59757;BME280;45631;51.962;5.974;2022-08-24T10:26:58;101681.31;;;34.84;39.21
59757;BME280;45631;51.962;5.974;2022-08-24T10:29:43;101693.63;;;34.99;35.98
59757;BME280;45631;51.962;5.974;2022-08-24T10:32:36;101686.88;;;34.90;35.80
59757;BME280;45631;51.962;5.974;2022-08-24T10:35:13;101678.91;;;35.17;35.80
59757;BME280;45631;51.962;5.974;2022-08-24T10:44:47;101687.00;;;34.71;35.35
59757;BME280;45631;51.962;5.974;2022-08-24T10:47:20;101678.19;;;34.81;35.89
59757;BME280;45631;51.962;5.974;2022-08-24T10:53:26;101683.63;;;34.28;36.91
59757;BME280;45631;51.962;5.974;2022-08-24T10:56:06;101673.81;;;34.39;35.88
59757;BME280;45631;51.962;5.974;2022-08-24T10:58:50;101671.22;;;34.73;37.09
59757;BME280;45631;51.962;5.974;2022-08-24T11:01:23;101674.13;;;35.24;35.86
59757;BME280;45631;51.962;5.974;2022-08-24T11:03:59;101670.78;;;35.68;34.65
59757;BME280;45631;51.962;5.974;2022-08-24T11:06:29;101670.88;;;35.27;34.80
59757;BME280;45631;51.962;5.974;2022-08-24T11:09:04;101671.63;;;35.06;37.08
59757;BME280;45631;51.962;5.974;2022-08-24T11:11:34;101668.50;;;35.31;34.28
59757;BME280;45631;51.962;5.974;2022-08-24T11:14:21;101671.69;;;35.57;35.02
59757;BME280;45631;51.962;5.974;2022-08-24T11:16:51;101670.44;;;35.47;34.22
59757;BME280;45631;51.962;5.974;2022-08-24T11:19:31;101666.16;;;35.68;33.61
59757;BME280;45631;51.962;5.974;2022-08-24T11:22:01;101665.31;;;36.02;33.85
59757;BME280;45631;51.962;5.974;2022-08-24T11:24:39;101665.47;;;35.78;34.36
59757;BME280;45631;51.962;5.974;2022-08-24T11:27:18;101662.59;;;35.85;34.35
59757;BME280;45631;51.962;5.974;2022-08-24T11:29:58;101671.34;;;35.53;33.40
59757;BME280;45631;51.962;5.974;2022-08-24T11:32:32;101672.94;;;35.49;33.81
59757;BME280;45631;51.962;5.974;2022-08-24T11:35:08;101674.84;;;35.48;33.60
59757;BME280;45631;51.962;5.974;2022-08-24T11:37:42;101673.94;;;35.60;33.70
59757;BME280;45631;51.962;5.974;2022-08-24T11:40:14;101667.06;;;35.40;33.59
59757;BME280;45631;51.962;5.974;2022-08-24T11:42:56;101659.16;;;35.78;33.25
59757;BME280;45631;51.962;5.974;2022-08-24T11:45:36;101666.53;;;36.50;34.17
59757;BME280;45631;51.962;5.974;2022-08-24T11:48:15;101666.22;;;36.91;32.05
59757;BME280;45631;51.962;5.974;2022-08-24T11:50:57;101655.97;;;36.20;32.56
59757;BME280;45631;51.962;5.974;2022-08-24T11:53:36;101661.50;;;36.25;32.45
59757;BME280;45631;51.962;5.974;2022-08-24T11:56:18;101655.59;;;36.11;33.09
59757;BME280;45631;51.962;5.974;2022-08-24T11:58:54;101659.34;;;35.88;32.96
59757;BME280;45631;51.962;5.974;2022-08-24T12:01:28;101656.56;;;35.20;33.37
59757;BME280;45631;51.962;5.974;2022-08-24T12:04:08;101662.84;;;35.49;33.26
59757;BME280;45631;51.962;5.974;2022-08-24T12:06:51;101660.56;;;35.80;34.78
59757;BME280;45631;51.962;5.974;2022-08-24T12:09:39;101657.38;;;35.83;32.31
59757;BME280;45631;51.962;5.974;2022-08-24T12:12:19;101656.53;;;35.66;33.55
59757;BME280;45631;51.962;5.974;2022-08-24T12:14:54;101654.78;;;36.11;33.46
59757;BME280;45631;51.962;5.974;2022-08-24T12:17:30;101649.44;;;36.65;32.81
59757;BME280;45631;51.962;5.974;2022-08-24T12:20:08;101657.94;;;36.86;32.37
59757;BME280;45631;51.962;5.974;2022-08-24T12:22:39;101645.25;;;36.58;32.43
59757;BME280;45631;51.962;5.974;2022-08-24T12:25:09;101648.78;;;37.30;32.30
59757;BME280;45631;51.962;5.974;2022-08-24T12:27:58;101650.72;;;37.34;31.04
59757;BME280;45631;51.962;5.974;2022-08-24T12:30:27;101647.81;;;37.19;30.78
59757;BME280;45631;51.962;5.974;2022-08-24T12:32:57;101646.06;;;37.67;30.48
59757;BME280;45631;51.962;5.974;2022-08-24T12:35:29;101642.59;;;37.77;29.52
59757;BME280;45631;51.962;5.974;2022-08-24T12:38:02;101641.59;;;37.94;29.79
59757;BME280;45631;51.962;5.974;2022-08-24T12:40:38;101646.78;;;37.52;28.95
59757;BME280;45631;51.962;5.974;2022-08-24T12:43:11;101638.25;;;37.21;30.02
59757;BME280;45631;51.962;5.974;2022-08-24T12:45:41;101639.13;;;37.27;29.76
59757;BME280;45631;51.962;5.974;2022-08-24T12:48:13;101638.34;;;37.04;30.61
59757;BME280;45631;51.962;5.974;2022-08-24T12:50:59;101634.34;;;36.63;30.88
59757;BME280;45631;51.962;5.974;2022-08-24T12:53:52;101635.19;;;36.63;31.07
59757;BME280;45631;51.962;5.974;2022-08-24T12:56:35;101634.91;;;36.20;33.52
59757;BME280;45631;51.962;5.974;2022-08-24T12:59:17;101634.41;;;35.84;33.47
59757;BME280;45631;51.962;5.974;2022-08-24T13:01:57;101629.28;;;36.10;32.44
59757;BME280;45631;51.962;5.974;2022-08-24T13:04:33;101631.81;;;36.56;31.59
59757;BME280;45631;51.962;5.974;2022-08-24T13:07:07;101631.50;;;36.80;32.05
59757;BME280;45631;51.962;5.974;2022-08-24T13:09:39;101630.78;;;36.84;31.93
59757;BME280;45631;51.962;5.974;2022-08-24T13:15:53;101630.91;;;37.27;30.45
59757;BME280;45631;51.962;5.974;2022-08-24T13:18:51;101633.91;;;37.26;29.19
59757;BME280;45631;51.962;5.974;2022-08-24T13:21:51;101630.59;;;36.91;31.68
59757;BME280;45631;51.962;5.974;2022-08-24T13:24:44;101635.22;;;36.91;32.08
59757;BME280;45631;51.962;5.974;2022-08-24T13:30:28;101627.00;;;38.41;28.34
59757;BME280;45631;51.962;5.974;2022-08-24T13:33:03;101629.56;;;38.74;27.66
59757;BME280;45631;51.962;5.974;2022-08-24T13:41:48;101615.66;;;39.21;26.80
59757;BME280;45631;51.962;5.974;2022-08-24T13:44:35;101625.50;;;39.48;26.11
59757;BME280;45631;51.962;5.974;2022-08-24T13:47:12;101611.78;;;39.64;25.29
59757;BME280;45631;51.962;5.974;2022-08-24T13:49:51;101610.91;;;39.58;26.21
59757;BME280;45631;51.962;5.974;2022-08-24T13:52:38;101612.88;;;39.37;27.25
59757;BME280;45631;51.962;5.974;2022-08-24T13:55:14;101611.22;;;39.62;27.90
59757;BME280;45631;51.962;5.974;2022-08-24T13:57:51;101609.81;;;39.54;27.02
59757;BME280;45631;51.962;5.974;2022-08-24T14:00:39;101602.97;;;39.36;26.23